createdAt,value
2023-04-30T00:04:40.644Z,95826.47
2023-04-30T00:09:43.120Z,95830.22
2023-04-30T00:14:45.491Z,95825.09
2023-04-30T00:19:48.276Z,95839.88
2023-04-30T00:24:51.042Z,95840.69
2023-04-30T00:29:54.022Z,95840.16
2023-04-30T00:34:56.479Z,95845.78
2023-04-30T00:39:59.196Z,95851.16
2023-04-30T00:45:01.844Z,95854.91
2023-04-30T00:50:04.889Z,95843.09
2023-04-30T00:55:07.749Z,95846.31
2023-04-30T01:00:11.620Z,95849.25
2023-04-30T01:05:14.579Z,95853.28
2023-04-30T01:10:17.311Z,95862.66
2023-04-30T01:15:20.148Z,95867.72
2023-04-30T01:20:22.468Z,95864.50
2023-04-30T01:25:24.875Z,95862.91
2023-04-30T01:30:27.278Z,95873.66
2023-04-30T01:35:29.621Z,95870.94
2023-04-30T01:40:32.413Z,95876.28
2023-04-30T01:45:34.932Z,95876.84
2023-04-30T01:50:37.762Z,95881.63
2023-04-30T01:55:40.460Z,95883.72
2023-04-30T02:00:43.203Z,95883.44
2023-04-30T02:05:45.993Z,95879.44
2023-04-30T02:10:48.783Z,95881.31
2023-04-30T02:15:51.436Z,95884.59
2023-04-30T02:20:54.095Z,95878.09
2023-04-30T02:25:56.529Z,95886.94
2023-04-30T02:30:59.298Z,95885.88
2023-04-30T02:36:01.961Z,95894.47
2023-04-30T02:41:04.795Z,95888.84
2023-04-30T02:46:07.661Z,95889.13
2023-04-30T02:51:10.501Z,95886.94
2023-04-30T02:56:12.931Z,95906.75
2023-04-30T03:01:15.574Z,95905.91
2023-04-30T03:06:17.993Z,95901.59
2023-04-30T03:11:21.369Z,95901.59
2023-04-30T03:16:23.785Z,95890.31
2023-04-30T03:21:26.157Z,95889.75
2023-04-30T03:26:28.497Z,95894.69
2023-04-30T03:31:31.343Z,95885.59
2023-04-30T03:36:34.160Z,95891.19
2023-04-30T03:41:36.475Z,95878.28
2023-04-30T03:46:38.862Z,95887.09
2023-04-30T03:51:42.333Z,95884.94
2023-04-30T03:56:44.818Z,95881.50
2023-04-30T04:01:47.602Z,95875.38
2023-04-30T04:06:50.394Z,95873.19
2023-04-30T04:11:53.218Z,95870.69
2023-04-30T04:16:56.026Z,95875.25
2023-04-30T04:21:58.826Z,95875.66
2023-04-30T04:27:02.899Z,95888.78
2023-04-30T04:32:06.489Z,95895.50
2023-04-30T04:37:08.989Z,95900.50
2023-04-30T04:42:11.971Z,95908.28
2023-04-30T04:47:14.696Z,95915.16
2023-04-30T04:52:17.112Z,95908.97
2023-04-30T04:57:19.834Z,95908.66
2023-04-30T05:02:23.452Z,95906.16
2023-04-30T05:07:25.990Z,95909.41
2023-04-30T05:12:28.412Z,95918.31
2023-04-30T05:17:31.156Z,95916.19
2023-04-30T05:22:33.648Z,95916.41
2023-04-30T05:27:36.091Z,95924.56
2023-04-30T05:32:38.455Z,95921.78
2023-04-30T05:37:40.974Z,95927.75
2023-04-30T05:42:43.839Z,95926.31
2023-04-30T05:47:46.257Z,95928.00
2023-04-30T05:52:48.549Z,95932.59
2023-04-30T05:57:50.889Z,95933.22
2023-04-30T06:02:53.962Z,95917.69
2023-04-30T06:07:56.580Z,95917.22
2023-04-30T06:12:58.965Z,95911.91
2023-04-30T06:18:01.440Z,95915.63
2023-04-30T06:23:04.072Z,95909.22
2023-04-30T06:28:08.302Z,95915.97
2023-04-30T06:33:10.877Z,95898.69
2023-04-30T06:38:13.227Z,95907.03
2023-04-30T06:43:15.697Z,95903.59
2023-04-30T06:48:18.135Z,95904.34
2023-04-30T06:53:20.602Z,95897.28
2023-04-30T06:58:22.891Z,95903.09
2023-04-30T07:03:25.446Z,95895.63
2023-04-30T07:08:27.956Z,95891.81
2023-04-30T07:13:30.636Z,95892.88
2023-04-30T07:18:32.981Z,95886.28
2023-04-30T07:23:35.349Z,95894.81
2023-04-30T07:28:37.799Z,95891.53
2023-04-30T07:33:40.175Z,95888.72
2023-04-30T07:38:42.521Z,95890.06
2023-04-30T07:43:45.084Z,95892.28
2023-04-30T07:48:47.535Z,95897.16
2023-04-30T07:53:49.864Z,95877.28
2023-04-30T07:58:52.292Z,95884.41
2023-04-30T08:03:54.695Z,95887.00
2023-04-30T08:08:57.228Z,95886.25
2023-04-30T08:13:59.552Z,95889.72
2023-04-30T08:19:02.022Z,95886.03
2023-04-30T08:24:04.447Z,95881.06
2023-04-30T08:29:08.258Z,95877.13
2023-04-30T08:34:10.587Z,95881.44
2023-04-30T08:39:12.975Z,95880.97
2023-04-30T08:44:15.487Z,95883.41
2023-04-30T08:49:17.860Z,95873.84
2023-04-30T08:54:20.941Z,95874.00
2023-04-30T08:59:23.313Z,95884.00
2023-04-30T09:04:25.704Z,95889.63
2023-04-30T09:09:28.064Z,95883.94
2023-04-30T09:14:30.406Z,95893.13
2023-04-30T09:19:33.089Z,95877.28
2023-04-30T09:24:36.211Z,95877.63
2023-04-30T09:29:38.954Z,95882.41
2023-04-30T09:34:41.825Z,95882.72
2023-04-30T09:39:44.288Z,95887.94
2023-04-30T09:44:46.646Z,95882.78
2023-04-30T09:49:51.562Z,95883.84
2023-04-30T09:54:54.462Z,95883.34
2023-04-30T09:59:58.493Z,95881.88
2023-04-30T10:05:01.709Z,95882.59
2023-04-30T10:10:04.966Z,95883.66
2023-04-30T10:15:07.379Z,95875.09
2023-04-30T10:20:09.866Z,95877.22
2023-04-30T10:25:13.635Z,95876.63
2023-04-30T10:30:16.617Z,95864.22
2023-04-30T10:35:19.523Z,95863.59
2023-04-30T10:40:21.917Z,95849.88
2023-04-30T10:45:24.580Z,95852.13
2023-04-30T10:50:27.015Z,95838.72
2023-04-30T10:55:29.904Z,95835.97
2023-04-30T11:00:32.702Z,95842.84
2023-04-30T11:05:35.688Z,95833.69
2023-04-30T11:10:38.032Z,95833.44
2023-04-30T11:15:40.542Z,95829.28
2023-04-30T11:20:43.081Z,95810.00
2023-04-30T11:25:45.473Z,95819.75
2023-04-30T11:30:47.868Z,95817.38
2023-04-30T11:35:52.707Z,95805.81
2023-04-30T11:40:56.480Z,95818.28
2023-04-30T11:45:59.012Z,95808.44
2023-04-30T11:51:01.406Z,95812.44
2023-04-30T11:56:03.785Z,95812.22
2023-04-30T12:01:06.485Z,95802.78
2023-04-30T12:06:09.106Z,95805.91
2023-04-30T12:11:14.614Z,95802.25
2023-04-30T12:16:17.613Z,95804.09
2023-04-30T12:21:20.296Z,95804.97
2023-04-30T12:26:22.644Z,95799.41
2023-04-30T12:31:25.074Z,95792.88
2023-04-30T12:36:27.707Z,95794.28
2023-04-30T12:41:30.153Z,95799.41
2023-04-30T12:46:32.924Z,95791.06
2023-04-30T12:51:35.599Z,95785.72
2023-04-30T12:56:38.815Z,95779.81
2023-04-30T13:01:41.240Z,95781.44
2023-04-30T13:06:43.719Z,95756.69
2023-04-30T13:11:47.205Z,95753.38
2023-04-30T13:16:49.598Z,95747.84
2023-04-30T13:21:51.988Z,95739.81
2023-04-30T13:26:54.349Z,95744.53
2023-04-30T13:31:57.029Z,95736.59
2023-04-30T13:36:59.589Z,95732.13
2023-04-30T13:42:02.283Z,95713.22
2023-04-30T13:47:04.638Z,95720.91
2023-04-30T13:52:07.013Z,95715.22
2023-04-30T13:57:09.452Z,95709.50
2023-04-30T14:02:11.927Z,95714.50
2023-04-30T14:07:14.249Z,95703.00
2023-04-30T14:12:16.605Z,95700.03
2023-04-30T14:17:18.952Z,95700.63
2023-04-30T14:22:21.496Z,95692.50
2023-04-30T14:27:24.129Z,95690.47
2023-04-30T14:32:26.601Z,95689.19
2023-04-30T14:37:29.553Z,95684.94
2023-04-30T14:42:31.952Z,95681.78
2023-04-30T14:47:34.344Z,95676.84
2023-04-30T14:52:37.074Z,95665.19
2023-04-30T14:57:39.437Z,95673.13
2023-04-30T15:02:41.951Z,95677.31
2023-04-30T15:07:44.379Z,95686.16
2023-04-30T15:12:46.743Z,95688.75
2023-04-30T15:17:49.374Z,95689.84
2023-04-30T15:22:53.726Z,95678.03
2023-04-30T15:27:56.049Z,95670.25
2023-04-30T15:32:58.553Z,95667.19
2023-04-30T15:38:01.077Z,95663.53
2023-04-30T15:43:03.438Z,95668.88
2023-04-30T15:48:05.780Z,95667.69
2023-04-30T15:53:08.425Z,95663.00
2023-04-30T15:58:10.862Z,95661.13
2023-04-30T16:03:13.278Z,95655.66
2023-04-30T16:08:16.156Z,95652.69
2023-04-30T16:13:19.174Z,95664.25
2023-04-30T16:18:21.602Z,95663.16
2023-04-30T16:23:24.692Z,95655.31
2023-04-30T16:28:28.319Z,95646.72
2023-04-30T16:33:31.197Z,95649.69
2023-04-30T16:38:33.949Z,95636.66
2023-04-30T16:43:36.287Z,95642.19
2023-04-30T16:48:39.056Z,95642.06
2023-04-30T16:53:41.413Z,95636.28
2023-04-30T16:58:43.825Z,95634.66
2023-04-30T17:03:46.417Z,95635.69
2023-04-30T17:08:49.197Z,95638.28
2023-04-30T17:13:53.742Z,95643.06
2023-04-30T17:18:57.046Z,95650.56
2023-04-30T17:23:59.575Z,95642.44
2023-04-30T17:29:01.876Z,95644.25
2023-04-30T17:34:13.980Z,95646.78
2023-04-30T17:39:23.812Z,95652.38
2023-04-30T17:44:26.123Z,95652.69
2023-04-30T17:49:28.560Z,95656.13
2023-04-30T17:54:31.027Z,95656.84
2023-04-30T17:59:33.406Z,95646.84
2023-04-30T18:04:36.595Z,95648.09
2023-04-30T18:09:39.298Z,95660.09
2023-04-30T18:14:41.702Z,95651.41
2023-04-30T18:19:44.707Z,95662.31
2023-04-30T18:24:47.152Z,95651.44
2023-04-30T18:29:50.318Z,95653.13
2023-04-30T18:34:53.019Z,95643.00
2023-04-30T18:39:56.434Z,95662.75
2023-04-30T18:44:59.195Z,95652.91
2023-04-30T18:50:01.872Z,95655.69
2023-04-30T18:55:06.527Z,95656.03
2023-04-30T19:00:09.164Z,95664.19
2023-04-30T19:05:11.537Z,95662.06
2023-04-30T19:10:14.152Z,95669.97
2023-04-30T19:15:17.832Z,95671.13
2023-04-30T19:20:20.251Z,95665.78
2023-04-30T19:25:23.433Z,95664.28
2023-04-30T19:30:25.813Z,95666.50
2023-04-30T19:35:28.295Z,95669.50
2023-04-30T19:40:30.669Z,95662.81
2023-04-30T19:45:32.958Z,95669.59
2023-04-30T19:50:35.353Z,95670.94
2023-04-30T19:55:37.721Z,95678.03
2023-04-30T20:00:40.077Z,95682.34
2023-04-30T20:05:42.731Z,95673.50
2023-04-30T20:10:46.959Z,95670.31
2023-04-30T20:15:49.533Z,95670.91
2023-04-30T20:20:52.291Z,95670.38
2023-04-30T20:25:55.303Z,95663.94
2023-04-30T20:30:57.904Z,95664.78
2023-04-30T20:36:00.385Z,95663.16
2023-04-30T20:41:03.358Z,95652.16
2023-04-30T20:46:05.836Z,95645.19
2023-04-30T20:51:08.216Z,95641.75
2023-04-30T20:56:12.127Z,95643.38
2023-04-30T21:01:14.572Z,95638.81
2023-04-30T21:06:17.219Z,95646.06
2023-04-30T21:11:20.480Z,95640.72
2023-04-30T21:16:23.262Z,95645.00
2023-04-30T21:21:25.681Z,95636.72
2023-04-30T21:26:28.110Z,95638.84
2023-04-30T21:31:30.631Z,95628.91
2023-04-30T21:36:33.000Z,95626.25
2023-04-30T21:41:35.343Z,95625.47
2023-04-30T21:46:38.280Z,95626.25
2023-04-30T21:51:40.673Z,95620.63
2023-04-30T21:56:43.077Z,95624.38
2023-04-30T22:01:45.945Z,95621.44
2023-04-30T22:06:48.423Z,95620.09
2023-04-30T22:11:51.689Z,95605.91
2023-04-30T22:16:54.337Z,95603.47
2023-04-30T22:21:56.654Z,95603.19
2023-04-30T22:26:58.997Z,95595.69
2023-04-30T22:32:01.654Z,95599.44
2023-04-30T22:37:04.431Z,95589.00
2023-04-30T22:42:07.048Z,95578.78
2023-04-30T22:47:09.473Z,95569.41
2023-04-30T22:52:11.964Z,95573.69
2023-04-30T22:57:14.401Z,95569.94
2023-04-30T23:02:16.756Z,95572.91
2023-04-30T23:07:19.149Z,95568.63
2023-04-30T23:12:22.671Z,95558.97
2023-04-30T23:17:25.151Z,95557.09
2023-04-30T23:22:27.693Z,95547.16
2023-04-30T23:27:30.527Z,95547.97
2023-04-30T23:32:33.298Z,95546.63
2023-04-30T23:37:35.930Z,95541.81
2023-04-30T23:42:38.383Z,95536.69
2023-04-30T23:47:40.796Z,95538.31
2023-04-30T23:52:44.067Z,95536.16
2023-04-30T23:57:46.380Z,95529.19
